createdAt,value
2018-07-22T00:00:12.284Z,100880.70
2018-07-22T00:02:41.572Z,100890.71
2018-07-22T00:09:28.322Z,100879.91
2018-07-22T00:11:57.503Z,100881.81
2018-07-22T00:14:26.400Z,100886.70
2018-07-22T00:16:55.324Z,100894.70
2018-07-22T00:19:24.278Z,100889.77
2018-07-22T00:21:53.253Z,100890.71
2018-07-22T00:24:22.164Z,100887.69
2018-07-22T00:26:51.082Z,100883.88
2018-07-22T00:29:20.032Z,100886.11
2018-07-22T00:32:43.977Z,100883.45
2018-07-22T00:35:13.138Z,100880.20
2018-07-22T00:37:42.366Z,100877.53
2018-07-22T00:40:12.218Z,100880.77
2018-07-22T00:42:41.130Z,100877.82
2018-07-22T00:45:12.015Z,100881.78
2018-07-22T00:47:41.386Z,100876.58
2018-07-22T00:50:10.380Z,100883.73
2018-07-22T00:52:39.683Z,100888.02
2018-07-22T00:55:08.647Z,100881.27
2018-07-22T00:57:37.663Z,100884.56
2018-07-22T01:00:06.979Z,100883.72
2018-07-22T01:02:35.821Z,100888.50
2018-07-22T01:05:05.015Z,100879.03
2018-07-22T01:07:33.815Z,100887.30
2018-07-22T01:10:02.735Z,100878.70
2018-07-22T01:12:31.584Z,100878.55
2018-07-22T01:15:09.179Z,100875.29
2018-07-22T01:17:38.069Z,100878.38
2018-07-22T01:20:07.624Z,100885.57
2018-07-22T01:22:36.655Z,100884.91
2018-07-22T01:25:05.776Z,100882.95
2018-07-22T01:27:34.704Z,100886.61
2018-07-22T01:30:03.750Z,100888.36
2018-07-22T01:32:32.730Z,100888.45
2018-07-22T01:35:01.645Z,100888.89
2018-07-22T01:37:30.724Z,100888.84
2018-07-22T01:39:59.624Z,100894.23
2018-07-22T01:42:28.524Z,100892.77
2018-07-22T01:44:57.453Z,100888.40
2018-07-22T01:47:26.425Z,100889.81
2018-07-22T01:49:55.381Z,100893.49
2018-07-22T01:52:24.260Z,100889.23
2018-07-22T01:54:53.143Z,100897.84
2018-07-22T01:57:22.020Z,100890.94
2018-07-22T01:59:50.934Z,100902.96
2018-07-22T02:02:19.842Z,100893.87
2018-07-22T02:04:48.705Z,100892.88
2018-07-22T02:07:17.592Z,100894.44
2018-07-22T02:09:46.455Z,100895.17
2018-07-22T02:12:15.437Z,100883.95
2018-07-22T02:14:44.264Z,100898.03
2018-07-22T02:17:13.304Z,100891.36
2018-07-22T02:19:42.204Z,100894.09
2018-07-22T02:22:11.119Z,100896.99
2018-07-22T02:24:40.017Z,100894.22
2018-07-22T02:27:09.007Z,100898.27
2018-07-22T02:29:37.821Z,100899.83
2018-07-22T02:32:07.013Z,100900.98
2018-07-22T02:34:35.812Z,100901.23
2018-07-22T02:37:04.693Z,100903.87
2018-07-22T02:39:33.599Z,100907.72
2018-07-22T02:42:02.532Z,100904.67
2018-07-22T02:44:31.573Z,100906.75
2018-07-22T02:47:00.566Z,100904.00
2018-07-22T02:49:29.398Z,100907.81
2018-07-22T02:51:58.261Z,100917.66
2018-07-22T02:54:27.159Z,100913.91
2018-07-22T02:56:56.052Z,100914.39
2018-07-22T02:59:24.938Z,100918.17
2018-07-22T03:01:53.823Z,100918.69
2018-07-22T03:04:22.739Z,100919.91
2018-07-22T03:06:51.612Z,100919.50
2018-07-22T03:09:20.503Z,100910.59
2018-07-22T03:11:49.453Z,100917.45
2018-07-22T03:14:18.315Z,100921.41
2018-07-22T03:16:47.235Z,100921.97
2018-07-22T03:19:16.119Z,100922.47
2018-07-22T03:21:45.067Z,100915.72
2018-07-22T03:24:13.937Z,100917.94
2018-07-22T03:26:42.831Z,100918.83
2018-07-22T03:29:18.111Z,100931.87
2018-07-22T03:31:46.999Z,100933.46
2018-07-22T03:34:15.931Z,100941.87
2018-07-22T03:36:44.835Z,100936.59
2018-07-22T03:39:13.783Z,100941.91
2018-07-22T03:41:42.716Z,100944.98
2018-07-22T03:44:11.638Z,100942.81
2018-07-22T03:46:40.430Z,100946.95
2018-07-22T03:49:09.368Z,100947.99
2018-07-22T03:55:22.794Z,100956.74
2018-07-22T03:57:51.680Z,100959.34
2018-07-22T04:00:20.540Z,100960.18
2018-07-22T04:02:49.408Z,100960.18
2018-07-22T04:05:18.312Z,100955.37
2018-07-22T04:07:47.155Z,100952.98
2018-07-22T04:10:16.029Z,100958.43
2018-07-22T04:12:45.001Z,100952.54
2018-07-22T04:15:15.079Z,100957.17
2018-07-22T04:17:43.953Z,100942.88
2018-07-22T04:20:12.830Z,100944.91
2018-07-22T04:22:41.778Z,100949.61
2018-07-22T04:25:10.717Z,100954.58
2018-07-22T04:27:39.594Z,100959.81
2018-07-22T04:30:08.515Z,100964.63
2018-07-22T04:32:37.467Z,100960.39
2018-07-22T04:35:06.307Z,100953.41
2018-07-22T04:37:38.502Z,100955.73
2018-07-22T04:40:07.346Z,100957.60
2018-07-22T04:42:36.202Z,100950.93
2018-07-22T04:45:06.053Z,100955.69
2018-07-22T04:47:35.141Z,100961.48
2018-07-22T04:50:04.037Z,100958.89
2018-07-22T04:52:33.016Z,100963.37
2018-07-22T04:55:01.898Z,100966.45
2018-07-22T04:57:30.808Z,100964.73
2018-07-22T04:59:59.719Z,100965.57
2018-07-22T05:02:28.672Z,100964.11
2018-07-22T05:04:57.490Z,100966.13
2018-07-22T05:07:26.428Z,100968.14
2018-07-22T05:09:55.243Z,100966.41
2018-07-22T05:12:24.110Z,100972.70
2018-07-22T05:14:52.967Z,100968.06
2018-07-22T05:17:21.843Z,100979.80
2018-07-22T05:23:33.237Z,100984.68
2018-07-22T05:26:02.117Z,100980.53
2018-07-22T05:28:30.977Z,100987.11
2018-07-22T05:30:59.835Z,100988.57
2018-07-22T05:33:28.732Z,100989.36
2018-07-22T05:35:57.672Z,100989.00
2018-07-22T05:38:26.547Z,100984.13
2018-07-22T05:40:55.445Z,100987.95
2018-07-22T05:43:24.353Z,100991.15
2018-07-22T05:45:53.233Z,100986.56
2018-07-22T05:48:22.129Z,100989.63
2018-07-22T05:50:51.001Z,100991.21
2018-07-22T05:53:19.896Z,100992.13
2018-07-22T05:55:48.802Z,100995.22
2018-07-22T05:58:17.678Z,100999.08
2018-07-22T06:00:46.516Z,100998.22
2018-07-22T06:03:15.411Z,101003.34
2018-07-22T06:05:44.267Z,101002.29
2018-07-22T06:08:13.308Z,101000.19
2018-07-22T06:10:42.122Z,100992.20
2018-07-22T06:13:10.992Z,100996.97
2018-07-22T06:15:39.924Z,100999.06
2018-07-22T06:18:08.718Z,100995.47
2018-07-22T06:20:37.603Z,100999.33
2018-07-22T06:23:06.524Z,101004.30
2018-07-22T06:25:35.349Z,101012.41
2018-07-22T06:28:04.368Z,101009.58
2018-07-22T06:30:33.257Z,101014.58
2018-07-22T06:33:02.172Z,101017.66
2018-07-22T06:35:31.069Z,101020.02
2018-07-22T06:37:59.969Z,101014.61
2018-07-22T06:40:28.815Z,101016.33
2018-07-22T06:42:57.666Z,101019.27
2018-07-22T06:45:26.553Z,101019.03
2018-07-22T06:47:55.463Z,101020.56
2018-07-22T06:50:24.531Z,101031.16
2018-07-22T06:52:53.490Z,101027.78
2018-07-22T06:55:22.341Z,101022.13
2018-07-22T06:57:51.210Z,101023.22
2018-07-22T07:00:20.090Z,101024.63
2018-07-22T07:02:48.996Z,101026.87
2018-07-22T07:05:17.896Z,101024.99
2018-07-22T07:07:46.748Z,101018.14
2018-07-22T07:10:15.696Z,101020.42
2018-07-22T07:12:47.464Z,101022.98
2018-07-22T07:15:16.316Z,101020.41
2018-07-22T07:17:45.208Z,101025.14
2018-07-22T07:20:14.087Z,101028.84
2018-07-22T07:22:42.980Z,101026.31
2018-07-22T07:25:12.058Z,101033.00
2018-07-22T07:27:40.942Z,101031.64
2018-07-22T07:30:09.845Z,101032.87
2018-07-22T07:32:38.745Z,101034.72
2018-07-22T07:35:07.628Z,101033.34
2018-07-22T07:37:36.471Z,101034.28
2018-07-22T07:40:05.428Z,101036.12
2018-07-22T07:42:34.296Z,101033.73
2018-07-22T07:45:03.172Z,101036.96
2018-07-22T07:47:31.986Z,101034.83
2018-07-22T07:50:00.869Z,101031.59
2018-07-22T07:52:29.748Z,101030.41
2018-07-22T07:54:58.764Z,101035.04
2018-07-22T07:57:27.627Z,101029.77
2018-07-22T07:59:56.447Z,101030.13
2018-07-22T08:02:26.208Z,101029.94
2018-07-22T08:04:55.489Z,101032.27
2018-07-22T08:07:24.371Z,101027.80
2018-07-22T08:09:53.246Z,101035.44
2018-07-22T08:12:22.171Z,101031.86
2018-07-22T08:14:51.043Z,101022.73
2018-07-22T08:17:19.924Z,101031.72
2018-07-22T08:19:48.796Z,101034.66
2018-07-22T08:22:17.763Z,101033.20
2018-07-22T08:24:46.564Z,101031.57
2018-07-22T08:27:15.433Z,101032.79
2018-07-22T08:29:44.326Z,101032.81
2018-07-22T08:32:13.123Z,101037.05
2018-07-22T08:34:41.999Z,101040.27
2018-07-22T08:37:46.753Z,101045.17
2018-07-22T08:40:15.664Z,101040.06
2018-07-22T08:42:44.516Z,101039.44
2018-07-22T08:45:13.418Z,101044.31
2018-07-22T08:47:42.290Z,101032.38
2018-07-22T08:50:11.115Z,101031.41
2018-07-22T08:52:39.989Z,101032.78
2018-07-22T08:55:08.854Z,101030.53
2018-07-22T08:57:37.903Z,101035.74
2018-07-22T09:00:07.958Z,101026.98
2018-07-22T09:02:36.809Z,101023.50
2018-07-22T09:05:06.345Z,101026.47
2018-07-22T09:07:35.176Z,101030.78
2018-07-22T09:10:04.087Z,101036.00
2018-07-22T09:12:32.972Z,101030.72
2018-07-22T09:15:01.983Z,101038.99
2018-07-22T09:17:30.842Z,101039.44
2018-07-22T09:19:59.727Z,101040.34
2018-07-22T09:22:35.815Z,101031.72
2018-07-22T09:25:04.696Z,101032.02
2018-07-22T09:27:33.568Z,101033.58
2018-07-22T09:30:02.457Z,101039.33
2018-07-22T09:32:31.355Z,101035.66
2018-07-22T09:35:00.143Z,101035.77
2018-07-22T09:37:29.059Z,101044.44
2018-07-22T09:40:02.670Z,101036.23
2018-07-22T09:42:33.037Z,101036.56
2018-07-22T09:45:06.298Z,101037.75
2018-07-22T09:47:35.536Z,101042.03
2018-07-22T09:50:07.658Z,101048.36
2018-07-22T09:52:36.520Z,101048.31
2018-07-22T09:55:10.521Z,101051.41
2018-07-22T09:57:45.859Z,101049.58
2018-07-22T10:00:31.074Z,101048.41
2018-07-22T10:03:01.729Z,101040.42
2018-07-22T10:05:31.337Z,101046.73
2018-07-22T10:08:06.070Z,101036.69
2018-07-22T10:10:37.634Z,101033.95
2018-07-22T10:13:12.071Z,101034.13
2018-07-22T10:15:43.159Z,101035.53
2018-07-22T10:18:15.179Z,101034.59
2018-07-22T10:20:44.377Z,101032.69
2018-07-22T10:24:11.105Z,101023.36
2018-07-22T10:26:45.202Z,101019.94
2018-07-22T10:29:14.242Z,101019.59
2018-07-22T10:31:46.712Z,101017.81
2018-07-22T10:34:24.411Z,101021.03
2018-07-22T10:36:56.364Z,101012.00
2018-07-22T10:39:30.786Z,101015.23
2018-07-22T10:41:55.056Z,101015.72
2018-07-22T10:44:30.527Z,101017.46
2018-07-22T10:47:03.972Z,101016.54
2018-07-22T10:49:39.849Z,101014.42
2018-07-22T10:52:10.932Z,101017.77
2018-07-22T10:54:38.860Z,101012.85
2018-07-22T10:57:11.667Z,101012.55
2018-07-22T10:59:45.980Z,101014.30
2018-07-22T11:02:15.147Z,101012.80
2018-07-22T11:04:47.907Z,101027.97
2018-07-22T11:07:19.826Z,101027.09
2018-07-22T11:09:49.389Z,101012.14
2018-07-22T11:12:18.825Z,101018.89
2018-07-22T11:14:55.687Z,101020.41
2018-07-22T11:17:24.443Z,101022.78
2018-07-22T11:19:56.407Z,101020.45
2018-07-22T11:22:37.526Z,101022.09
2018-07-22T11:25:07.070Z,101017.64
2018-07-22T11:27:36.479Z,101015.47
2018-07-22T11:30:05.688Z,101022.48
2018-07-22T11:32:40.077Z,101026.09
2018-07-22T11:35:11.674Z,101020.39
2018-07-22T11:37:41.554Z,101021.77
2018-07-22T11:40:19.154Z,101020.88
2018-07-22T11:42:48.500Z,101014.71
2018-07-22T11:45:30.227Z,101016.67
2018-07-22T11:48:00.109Z,101015.95
2018-07-22T11:50:29.262Z,101010.13
2018-07-22T11:53:00.663Z,101009.30
2018-07-22T11:55:30.180Z,101002.81
2018-07-22T11:58:02.753Z,101005.36
2018-07-22T12:00:31.722Z,101007.36
2018-07-22T12:03:01.157Z,101001.99
2018-07-22T12:05:35.683Z,101004.61
2018-07-22T12:08:10.395Z,100999.01
2018-07-22T12:10:48.961Z,100996.69
2018-07-22T12:13:18.065Z,101001.27
2018-07-22T12:15:49.998Z,101000.87
2018-07-22T12:18:19.327Z,100999.53
2018-07-22T12:20:48.563Z,100998.39
2018-07-22T12:23:18.070Z,100994.75
2018-07-22T12:25:54.888Z,101005.08
2018-07-22T12:28:28.667Z,101004.83
2018-07-22T12:30:56.167Z,101006.77
2018-07-22T12:33:27.602Z,101002.56
2018-07-22T12:35:59.543Z,100998.03
2018-07-22T12:38:28.731Z,101005.34
2018-07-22T12:41:05.774Z,101000.54
2018-07-22T12:43:37.439Z,100998.36
2018-07-22T12:46:06.678Z,100996.69
2018-07-22T12:48:36.362Z,100996.31
2018-07-22T12:51:09.314Z,100998.94
2018-07-22T12:53:38.685Z,100997.99
2018-07-22T12:56:07.954Z,100990.11
2018-07-22T12:58:37.128Z,100983.50
2018-07-22T13:01:06.473Z,100983.41
2018-07-22T13:03:35.549Z,100983.50
2018-07-22T13:06:05.140Z,100986.02
2018-07-22T13:08:37.824Z,100971.38
2018-07-22T13:11:05.191Z,100974.52
2018-07-22T13:13:34.219Z,100982.92
2018-07-22T13:16:07.275Z,100970.33
2018-07-22T13:18:36.350Z,100964.67
2018-07-22T13:21:05.543Z,100961.59
2018-07-22T13:23:38.725Z,100959.11
2018-07-22T13:26:08.160Z,100963.85
2018-07-22T13:28:37.532Z,100966.39
2018-07-22T13:31:08.563Z,100968.64
2018-07-22T13:33:41.347Z,100969.76
2018-07-22T13:36:22.669Z,100967.52
2018-07-22T13:38:56.587Z,100974.52
2018-07-22T13:41:25.851Z,100984.05
2018-07-22T13:43:55.218Z,100978.72
2018-07-22T13:46:26.417Z,100982.09
2018-07-22T13:48:55.547Z,100982.59
2018-07-22T13:51:29.784Z,100981.47
2018-07-22T13:53:59.062Z,100973.91
2018-07-22T13:56:32.701Z,100966.04
2018-07-22T13:59:02.137Z,100974.14
2018-07-22T14:01:37.786Z,100967.45
2018-07-22T14:04:07.299Z,100969.20
2018-07-22T14:06:42.989Z,100968.92
2018-07-22T14:09:15.928Z,100982.36
2018-07-22T14:11:45.238Z,100980.34
2018-07-22T14:14:17.446Z,100984.52
2018-07-22T14:16:49.115Z,100968.20
2018-07-22T14:19:19.780Z,100962.78
2018-07-22T14:21:47.282Z,100966.78
2018-07-22T14:24:18.938Z,100957.54
2018-07-22T14:26:48.555Z,100973.85
2018-07-22T14:29:20.390Z,100971.61
2018-07-22T14:31:49.923Z,100963.09
2018-07-22T14:34:19.481Z,100962.20
2018-07-22T14:36:55.917Z,100963.45
2018-07-22T14:39:25.072Z,100965.94
2018-07-22T14:41:53.999Z,100975.96
2018-07-22T14:44:22.838Z,100963.29
2018-07-22T14:46:58.048Z,100969.33
2018-07-22T14:49:26.842Z,100967.38
2018-07-22T14:51:55.810Z,100965.80
2018-07-22T14:54:24.648Z,100961.91
2018-07-22T14:56:53.488Z,100954.34
2018-07-22T14:59:22.394Z,100970.09
2018-07-22T15:01:51.261Z,100969.45
2018-07-22T15:04:20.188Z,100959.69
2018-07-22T15:06:49.023Z,100966.14
2018-07-22T15:09:19.605Z,100971.05
2018-07-22T15:11:48.528Z,100963.93
2018-07-22T15:14:17.388Z,100969.33
2018-07-22T15:16:46.241Z,100974.89
2018-07-22T15:19:15.123Z,100971.84
2018-07-22T15:21:43.981Z,100972.50
2018-07-22T15:24:12.847Z,100971.59
2018-07-22T15:26:41.711Z,100973.23
2018-07-22T15:29:10.570Z,100979.95
2018-07-22T15:35:33.273Z,100986.73
2018-07-22T15:38:02.110Z,100986.47
2018-07-22T15:40:30.998Z,100980.83
2018-07-22T15:42:59.899Z,100983.05
2018-07-22T15:45:28.746Z,100986.88
2018-07-22T15:47:57.611Z,100975.90
2018-07-22T15:50:26.427Z,100972.05
2018-07-22T15:52:55.285Z,100970.09
2018-07-22T15:55:24.267Z,100972.61
2018-07-22T15:58:28.866Z,100966.77
2018-07-22T16:00:57.709Z,100971.55
2018-07-22T16:03:26.681Z,100971.26
2018-07-22T16:05:55.527Z,100973.16
2018-07-22T16:08:24.470Z,100976.70
2018-07-22T16:10:53.260Z,100980.13
2018-07-22T16:13:22.165Z,100975.28
2018-07-22T16:15:51.044Z,100972.67
2018-07-22T16:18:20.112Z,100976.64
2018-07-22T16:20:52.166Z,100977.36
2018-07-22T16:23:21.039Z,100984.31
2018-07-22T16:25:49.883Z,100987.05
2018-07-22T16:28:18.744Z,100988.89
2018-07-22T16:30:47.716Z,100980.88
2018-07-22T16:33:16.572Z,100981.32
2018-07-22T16:35:45.957Z,100994.12
2018-07-22T16:38:14.825Z,100986.63
2018-07-22T16:40:43.677Z,100985.62
2018-07-22T16:43:15.688Z,100989.59
2018-07-22T16:45:44.607Z,100995.48
2018-07-22T16:48:13.445Z,100980.89
2018-07-22T16:50:42.362Z,100986.55
2018-07-22T16:53:11.199Z,100979.53
2018-07-22T16:55:40.071Z,100981.47
2018-07-22T16:58:10.633Z,100980.50
2018-07-22T17:00:37.890Z,100980.55
2018-07-22T17:03:06.760Z,100976.27
2018-07-22T17:05:35.711Z,100984.06
2018-07-22T17:08:04.534Z,100986.64
2018-07-22T17:10:34.084Z,100983.17
2018-07-22T17:13:02.952Z,100987.06
2018-07-22T17:15:31.833Z,100983.59
2018-07-22T17:18:00.712Z,100983.55
2018-07-22T17:20:29.574Z,100979.25
2018-07-22T17:22:58.472Z,100990.57
2018-07-22T17:25:27.282Z,100989.71
2018-07-22T17:27:56.098Z,100989.87
2018-07-22T17:30:24.952Z,100993.16
2018-07-22T17:32:53.921Z,100999.98
2018-07-22T17:35:22.700Z,100997.64
2018-07-22T17:37:51.569Z,101006.98
2018-07-22T17:40:20.401Z,101006.30
2018-07-22T17:42:49.339Z,101004.80
2018-07-22T17:45:20.662Z,101005.55
2018-07-22T17:47:49.529Z,101007.02
2018-07-22T17:50:24.328Z,101009.79
2018-07-22T17:52:53.231Z,101012.42
2018-07-22T17:55:22.091Z,101011.20
2018-07-22T17:57:50.955Z,101010.90
2018-07-22T18:00:19.826Z,101017.44
2018-07-22T18:03:09.476Z,101018.83
2018-07-22T18:05:38.565Z,101014.92
2018-07-22T18:08:07.444Z,101019.52
2018-07-22T18:10:39.277Z,101018.06
2018-07-22T18:13:08.085Z,101022.04
2018-07-22T18:15:36.988Z,101026.08
2018-07-22T18:18:06.002Z,101021.69
2018-07-22T18:20:34.914Z,101019.55
2018-07-22T18:23:03.935Z,101021.57
2018-07-22T18:25:32.748Z,101026.95
2018-07-22T18:28:01.790Z,101031.45
2018-07-22T18:30:31.001Z,101038.00
2018-07-22T18:33:01.209Z,101037.80
2018-07-22T18:35:30.075Z,101037.80
2018-07-22T18:37:58.983Z,101040.78
2018-07-22T18:40:27.847Z,101040.95
2018-07-22T18:42:57.183Z,101045.02
2018-07-22T18:45:26.124Z,101046.51
2018-07-22T18:47:55.251Z,101051.55
2018-07-22T18:50:24.369Z,101053.61
2018-07-22T18:52:53.268Z,101054.04
2018-07-22T18:58:57.605Z,101048.35
2018-07-22T19:01:26.456Z,101060.16
2018-07-22T19:03:55.475Z,101056.22
2018-07-22T19:06:24.392Z,101057.76
2018-07-22T19:08:53.294Z,101061.80
2018-07-22T19:11:22.299Z,101062.34
2018-07-22T19:13:51.287Z,101075.62
2018-07-22T19:16:20.211Z,101081.73
2018-07-22T19:18:49.185Z,101087.21
2018-07-22T19:21:18.069Z,101089.54
2018-07-22T19:23:46.945Z,101089.38
2018-07-22T19:26:15.884Z,101094.27
2018-07-22T19:28:44.736Z,101097.21
2018-07-22T19:31:13.827Z,101096.59
2018-07-22T19:33:42.751Z,101096.58
2018-07-22T19:36:11.600Z,101096.41
2018-07-22T19:38:40.525Z,101104.05
2018-07-22T19:41:10.585Z,101102.48
2018-07-22T19:43:39.485Z,101108.41
2018-07-22T19:46:08.420Z,101103.07
2018-07-22T19:48:37.295Z,101106.06
2018-07-22T19:51:06.225Z,101109.58
2018-07-22T19:53:35.044Z,101110.33
2018-07-22T19:56:04.077Z,101117.45
2018-07-22T19:58:32.931Z,101119.94
2018-07-22T20:01:01.791Z,101125.09
2018-07-22T20:03:30.751Z,101124.91
2018-07-22T20:05:59.639Z,101128.27
2018-07-22T20:08:28.620Z,101127.00
2018-07-22T20:10:57.520Z,101134.83
2018-07-22T20:13:26.671Z,101137.77
2018-07-22T20:15:55.573Z,101132.28
2018-07-22T20:18:24.492Z,101131.98
2018-07-22T20:20:53.373Z,101127.41
2018-07-22T20:23:22.267Z,101135.59
2018-07-22T20:25:51.219Z,101137.83
2018-07-22T20:28:20.193Z,101143.64
2018-07-22T20:30:49.194Z,101147.84
2018-07-22T20:33:18.195Z,101147.73
2018-07-22T20:35:47.106Z,101150.22
2018-07-22T20:38:16.047Z,101149.50
2018-07-22T20:40:44.940Z,101148.76
2018-07-22T20:43:13.840Z,101155.78
2018-07-22T20:45:42.815Z,101156.13
2018-07-22T20:48:12.994Z,101155.41
2018-07-22T20:50:41.860Z,101160.59
2018-07-22T20:53:10.740Z,101162.55
2018-07-22T20:55:39.654Z,101168.60
2018-07-22T20:58:08.514Z,101168.17
2018-07-22T21:00:37.696Z,101163.59
2018-07-22T21:03:06.587Z,101159.02
2018-07-22T21:05:35.554Z,101162.93
2018-07-22T21:08:04.535Z,101164.69
2018-07-22T21:10:34.185Z,101164.98
2018-07-22T21:13:31.318Z,101164.48
2018-07-22T21:16:00.265Z,101167.52
2018-07-22T21:18:29.135Z,101168.13
2018-07-22T21:20:58.037Z,101170.95
2018-07-22T21:23:26.926Z,101178.23
2018-07-22T21:25:55.840Z,101180.86
2018-07-22T21:28:24.707Z,101177.77
2018-07-22T21:30:53.626Z,101186.58
2018-07-22T21:33:22.600Z,101182.94
2018-07-22T21:35:51.535Z,101189.40
2018-07-22T21:38:20.422Z,101186.61
2018-07-22T21:40:49.323Z,101193.80
2018-07-22T21:43:18.196Z,101192.89
2018-07-22T21:45:47.094Z,101193.19
2018-07-22T21:48:16.100Z,101198.14
2018-07-22T21:50:44.910Z,101197.41
2018-07-22T21:54:08.377Z,101206.30
2018-07-22T21:56:37.262Z,101209.13
2018-07-22T21:59:06.477Z,101210.05
2018-07-22T22:01:35.348Z,101206.97
2018-07-22T22:04:04.242Z,101209.78
2018-07-22T22:06:33.276Z,101216.61
2018-07-22T22:09:02.064Z,101217.66
2018-07-22T22:11:30.962Z,101222.70
2018-07-22T22:13:59.798Z,101217.80
2018-07-22T22:16:30.074Z,101215.74
2018-07-22T22:18:58.988Z,101221.38
2018-07-22T22:21:27.868Z,101219.27
2018-07-22T22:23:56.714Z,101223.25
2018-07-22T22:26:25.610Z,101225.08
2018-07-22T22:28:54.471Z,101229.00
2018-07-22T22:31:23.379Z,101224.73
2018-07-22T22:33:52.230Z,101222.91
2018-07-22T22:36:21.188Z,101218.62
2018-07-22T22:38:53.204Z,101223.72
2018-07-22T22:41:22.146Z,101221.94
2018-07-22T22:43:50.992Z,101216.80
2018-07-22T22:46:19.906Z,101217.47
2018-07-22T22:48:48.765Z,101226.09
2018-07-22T22:51:17.719Z,101220.16
2018-07-22T22:53:46.548Z,101216.29
2018-07-22T22:56:15.472Z,101222.67
2018-07-22T22:59:19.575Z,101221.66
2018-07-22T23:01:48.657Z,101224.75
2018-07-22T23:04:17.737Z,101224.44
2018-07-22T23:06:46.816Z,101232.19
2018-07-22T23:09:16.450Z,101228.95
2018-07-22T23:11:45.389Z,101225.92
2018-07-22T23:14:14.249Z,101224.39
2018-07-22T23:16:43.172Z,101232.72
2018-07-22T23:19:12.071Z,101227.94
2018-07-22T23:21:40.993Z,101221.33
2018-07-22T23:24:09.916Z,101227.75
2018-07-22T23:26:38.716Z,101234.30
2018-07-22T23:29:07.576Z,101232.30
2018-07-22T23:31:36.422Z,101239.50
2018-07-22T23:34:05.284Z,101234.86
2018-07-22T23:36:34.166Z,101232.14
2018-07-22T23:39:03.063Z,101233.37
2018-07-22T23:41:35.044Z,101232.19
2018-07-22T23:44:03.906Z,101235.70
2018-07-22T23:46:32.798Z,101230.39
2018-07-22T23:49:01.723Z,101227.66
2018-07-22T23:51:30.579Z,101231.47
2018-07-22T23:53:59.491Z,101224.64
2018-07-22T23:56:28.434Z,101236.02
2018-07-22T23:58:57.311Z,101231.94
